Time;durP1;ratioP1;P1;durP2;ratioP2;P2;SDS_P1;SDS_P2;PMS_P1;PMS_P2;Temp;Humidity;BMP_temperature;BMP_pressure;BME280_temperature;BME280_humidity;BME280_pressure;Samples;Min_cycle;Max_cycle;Signal;HPM_P1;HPM_P2
2021/05/22 00:01:30;;;;;;;2.97;1.38;;;17.80;54.80;;;;;;5031012;28;20030;-59
2021/05/22 00:03:56;;;;;;;3.10;1.60;;;17.70;55.00;;;;;;5014356;28;20029;-59
2021/05/22 00:06:23;;;;;;;2.17;1.20;;;17.70;55.00;;;;;;5031574;28;20476;-53
2021/05/22 00:08:48;;;;;;;3.75;1.45;;;17.60;55.10;;;;;;5031487;28;20175;-60
2021/05/22 00:11:14;;;;;;;2.10;1.20;;;17.60;55.30;;;;;;5031890;28;20398;-59
2021/05/22 00:13:40;;;;;;;1.88;1.30;;;17.60;55.60;;;;;;5031410;28;20522;-60
2021/05/22 00:16:06;;;;;;;5.50;1.35;;;17.60;55.60;;;;;;5031773;28;20061;-60
2021/05/22 00:18:32;;;;;;;3.25;1.35;;;17.60;56.40;;;;;;4997420;28;20079;-60
2021/05/22 00:20:58;;;;;;;2.55;1.30;;;17.60;55.70;;;;;;5014100;28;20533;-56
2021/05/22 00:23:24;;;;;;;3.85;1.30;;;17.70;55.80;;;;;;5013322;28;20056;-55
2021/05/22 00:25:50;;;;;;;4.25;1.30;;;17.70;55.70;;;;;;5013811;28;20124;-57
2021/05/22 00:28:16;;;;;;;3.30;1.30;;;17.70;55.70;;;;;;5031538;28;20057;-59
2021/05/22 00:30:42;;;;;;;4.28;1.60;;;17.70;55.80;;;;;;5034202;28;20052;-58
2021/05/22 00:33:07;;;;;;;2.55;1.33;;;17.80;55.60;;;;;;5034825;28;20030;-59
2021/05/22 00:35:33;;;;;;;3.72;1.58;;;17.80;55.50;;;;;;5016963;28;20025;-61
2021/05/22 00:37:59;;;;;;;3.40;1.50;;;17.80;55.40;;;;;;5034721;28;20095;-56
2021/05/22 00:40:25;;;;;;;3.67;1.45;;;17.80;55.30;;;;;;5034825;28;20072;-51
2021/05/22 00:42:50;;;;;;;2.97;1.27;;;17.80;55.30;;;;;;5034492;28;20454;-59
2021/05/22 00:45:24;;;;;;;4.55;1.40;;;17.90;55.30;;;;;;5017159;28;20036;-58
2021/05/22 00:47:51;;;;;;;;;;;17.80;55.30;;;;;;5034994;28;20060;-57
2021/05/22 00:50:43;;;;;;;4.38;1.20;;;17.80;55.50;;;;;;5034629;28;19915;-59
2021/05/22 00:53:10;;;;;;;5.88;1.73;;;17.80;55.40;;;;;;5014091;28;20249;-59
2021/05/22 00:55:36;;;;;;;2.85;1.30;;;17.80;55.20;;;;;;5034015;28;20032;-59
2021/05/22 00:58:03;;;;;;;1.98;1.20;;;17.70;55.50;;;;;;5000758;28;20052;-56
2021/05/22 01:00:40;;;;;;;3.63;1.40;;;17.70;55.40;;;;;;5016329;28;20033;-60
2021/05/22 01:03:09;;;;;;;2.72;1.40;;;17.70;55.60;;;;;;5034687;28;20025;-59
2021/05/22 01:05:35;;;;;;;3.80;1.48;;;17.70;55.60;;;;;;5033788;28;20029;-59
2021/05/22 01:08:13;;;;;;;4.10;1.20;;;17.60;56.50;;;;;;5034447;28;20116;-59
2021/05/22 01:10:39;;;;;;;3.03;1.65;;;17.60;56.20;;;;;;5034029;28;20021;-59
2021/05/22 01:13:05;;;;;;;4.07;2.38;;;17.60;56.40;;;;;;5016536;28;20030;-59
2021/05/22 01:15:32;;;;;;;2.40;1.30;;;17.60;56.30;;;;;;5016112;28;20030;-59
2021/05/22 01:17:59;;;;;;;2.00;1.20;;;17.50;56.50;;;;;;5034259;28;20028;-59
2021/05/22 01:20:42;;;;;;;4.10;1.30;;;17.60;56.50;;;;;;5016418;28;20025;-58
2021/05/22 01:23:21;;;;;;;4.28;1.30;;;17.50;56.40;;;;;;5016193;28;20029;-58
2021/05/22 01:25:48;;;;;;;4.43;2.38;;;17.50;56.30;;;;;;5033646;28;20178;-59
2021/05/22 01:28:15;;;;;;;3.33;1.30;;;17.60;56.30;;;;;;5016344;28;20038;-57
2021/05/22 01:30:44;;;;;;;2.45;1.38;;;17.50;56.20;;;;;;5033580;28;20021;-60
2021/05/22 01:33:10;;;;;;;3.88;1.40;;;17.50;56.20;;;;;;5033786;28;20026;-58
2021/05/22 01:35:38;;;;;;;3.40;1.30;;;17.50;56.10;;;;;;5033211;28;20522;-59
2021/05/22 01:38:04;;;;;;;2.53;1.17;;;17.50;56.20;;;;;;5033887;28;20030;-58
2021/05/22 01:40:30;;;;;;;2.20;1.08;;;17.40;56.40;;;;;;5032572;28;20547;-57
2021/05/22 01:42:56;;;;;;;1.92;1.30;;;17.50;56.30;;;;;;5033525;28;20419;-59
2021/05/22 01:45:28;;;;;;;2.58;1.20;;;17.40;56.40;;;;;;5033634;28;20531;-60
2021/05/22 01:47:56;;;;;;;2.28;1.13;;;17.30;56.60;;;;;;5033654;28;20037;-57
2021/05/22 01:50:24;;;;;;;2.13;1.10;;;17.30;56.60;;;;;;5033265;28;20434;-58
2021/05/22 01:52:53;;;;;;;2.33;1.17;;;17.30;56.70;;;;;;5015176;28;20403;-58
2021/05/22 01:55:20;;;;;;;2.28;1.35;;;17.40;56.50;;;;;;5033340;28;20507;-58
2021/05/22 01:57:46;;;;;;;3.15;1.23;;;17.30;56.70;;;;;;5032764;28;20047;-58
2021/05/22 02:00:13;;;;;;;3.15;1.50;;;17.30;56.70;;;;;;5033107;28;20492;-61
2021/05/22 02:03:03;;;;;;;7.22;1.58;;;17.30;57.20;;;;;;5032156;28;20116;-61
2021/05/22 02:05:31;;;;;;;2.92;1.40;;;17.30;57.50;;;;;;5033387;28;20026;-62
2021/05/22 02:07:58;;;;;;;4.93;2.13;;;17.20;58.00;;;;;;5033365;28;20025;-60
2021/05/22 02:10:25;;;;;;;3.85;1.70;;;17.10;58.10;;;;;;5033285;28;20025;-62
2021/05/22 02:12:53;;;;;;;3.53;1.60;;;17.20;58.00;;;;;;5014563;28;20029;-61
2021/05/22 02:15:20;;;;;;;4.57;1.90;;;17.10;58.30;;;;;;5015190;28;20129;-61
2021/05/22 02:17:47;;;;;;;3.15;1.80;;;17.10;58.20;;;;;;5032123;28;20021;-62
2021/05/22 02:20:17;;;;;;;4.30;1.70;;;17.10;58.30;;;;;;5014741;28;20032;-62
2021/05/22 02:22:44;;;;;;;3.42;1.60;;;17.10;58.50;;;;;;5031880;28;20055;-62
2021/05/22 02:25:12;;;;;;;4.95;1.75;;;17.00;59.10;;;;;;5031956;28;20160;-63
2021/05/22 02:27:38;;;;;;;2.03;1.17;;;16.90;59.70;;;;;;5032414;28;20025;-62
2021/05/22 02:30:10;;;;;;;3.05;1.50;;;16.80;60.00;;;;;;5032902;28;20372;-62
2021/05/22 02:32:39;;;;;;;3.22;1.20;;;16.70;60.00;;;;;;5031267;28;20037;-61
2021/05/22 02:35:07;;;;;;;3.33;1.38;;;16.60;60.20;;;;;;5014744;28;20033;-61
2021/05/22 02:37:35;;;;;;;2.83;1.00;;;16.60;60.30;;;;;;5032093;28;20460;-61
2021/05/22 02:40:16;;;;;;;4.35;1.50;;;16.60;60.20;;;;;;5032215;28;20099;-61
2021/05/22 02:42:47;;;;;;;4.80;1.40;;;16.60;60.40;;;;;;5031683;28;20053;-62
2021/05/22 02:45:14;;;;;;;5.60;1.65;;;16.60;60.10;;;;;;5031916;28;20112;-61
2021/05/22 02:47:44;;;;;;;2.83;1.35;;;16.60;60.20;;;;;;5031203;28;20029;-61
2021/05/22 02:50:10;;;;;;;3.53;1.08;;;16.70;60.00;;;;;;5031266;28;20029;-60
2021/05/22 02:52:39;;;;;;;4.53;1.40;;;16.70;60.30;;;;;;5030334;28;20076;-62
2021/05/22 02:55:09;;;;;;;4.15;1.38;;;16.70;59.80;;;;;;5031961;28;20065;-63
2021/05/22 02:57:38;;;;;;;3.30;1.10;;;16.80;59.60;;;;;;5031313;28;20477;-62
2021/05/22 03:00:05;;;;;;;4.00;1.35;;;16.70;59.60;;;;;;5031718;28;20053;-61
2021/05/22 03:02:33;;;;;;;3.95;1.20;;;16.80;59.80;;;;;;5031603;28;20499;-64
2021/05/22 03:05:00;;;;;;;1.92;1.10;;;16.80;59.90;;;;;;5014466;28;20033;-62
2021/05/22 03:07:26;;;;;;;4.93;1.33;;;16.90;59.80;;;;;;5032299;28;20021;-62
2021/05/22 03:09:52;;;;;;;5.88;1.38;;;16.90;59.60;;;;;;5031829;28;20025;-62
2021/05/22 03:12:21;;;;;;;2.78;1.20;;;16.90;59.40;;;;;;5031984;28;20479;-62
2021/05/22 03:14:47;;;;;;;3.70;1.38;;;17.00;59.30;;;;;;5031635;28;20038;-61
2021/05/22 03:17:13;;;;;;;4.70;1.52;;;16.90;59.40;;;;;;5032144;28;20025;-62
2021/05/22 03:19:38;;;;;;;4.60;1.40;;;16.90;59.50;;;;;;5031535;28;20029;-62
2021/05/22 03:22:04;;;;;;;4.15;1.52;;;17.00;59.40;;;;;;5014317;28;20478;-62
2021/05/22 03:24:30;;;;;;;2.22;1.10;;;16.90;59.40;;;;;;5032103;28;20156;-61
2021/05/22 03:26:57;;;;;;;3.67;1.63;;;17.00;59.50;;;;;;5031716;28;20401;-62
2021/05/22 03:29:23;;;;;;;4.50;1.70;;;17.00;59.20;;;;;;5031924;28;20052;-62
2021/05/22 03:31:49;;;;;;;3.00;1.42;;;17.00;59.60;;;;;;5031377;28;20106;-61
2021/05/22 03:34:15;;;;;;;3.63;1.45;;;17.00;59.90;;;;;;5031995;28;20041;-62
2021/05/22 03:36:40;;;;;;;12.65;1.80;;;16.90;60.10;;;;;;5013462;28;20455;-60
2021/05/22 03:39:06;;;;;;;4.15;1.75;;;16.90;60.40;;;;;;5031695;28;20365;-63
2021/05/22 03:41:32;;;;;;;4.80;1.60;;;16.90;60.50;;;;;;5031699;28;20083;-62
2021/05/22 03:43:59;;;;;;;4.28;1.50;;;16.80;60.60;;;;;;5012905;28;20057;-61
2021/05/22 03:46:24;;;;;;;2.65;1.23;;;16.90;60.20;;;;;;5013713;28;20033;-60
2021/05/22 03:48:50;;;;;;;4.70;1.38;;;17.00;60.00;;;;;;5013686;28;20427;-60
2021/05/22 03:51:15;;;;;;;2.60;1.45;;;17.10;59.80;;;;;;5031849;28;20026;-60
2021/05/22 03:53:41;;;;;;;4.15;1.30;;;17.00;60.00;;;;;;5031327;28;20472;-61
2021/05/22 03:56:07;;;;;;;4.10;1.55;;;16.90;60.00;;;;;;5031568;28;20033;-61
2021/05/22 03:58:32;;;;;;;2.83;1.20;;;17.00;59.90;;;;;;5031863;28;20053;-61
2021/05/22 04:00:58;;;;;;;3.67;1.42;;;17.10;59.80;;;;;;5013413;28;20029;-61
2021/05/22 04:03:24;;;;;;;4.78;1.60;;;17.00;59.70;;;;;;5015448;28;20064;-61
2021/05/22 04:05:50;;;;;;;2.45;1.30;;;17.10;59.70;;;;;;5034864;28;20037;-63
2021/05/22 04:08:16;;;;;;;3.83;1.25;;;17.10;59.90;;;;;;5035218;28;20028;-63
2021/05/22 04:10:41;;;;;;;2.83;1.50;;;17.00;60.00;;;;;;5035008;28;20065;-60
2021/05/22 04:13:08;;;;;;;2.83;1.50;;;17.00;60.20;;;;;;5035247;28;20021;-61
2021/05/22 04:15:34;;;;;;;3.25;1.27;;;17.00;60.10;;;;;;5035189;28;20025;-61
2021/05/22 04:17:59;;;;;;;3.70;1.63;;;17.00;60.20;;;;;;5017192;28;20052;-60
2021/05/22 04:20:25;;;;;;;5.55;1.17;;;16.90;60.20;;;;;;5035032;28;20368;-62
2021/05/22 04:22:51;;;;;;;3.88;1.35;;;17.00;60.30;;;;;;5034615;28;20049;-61
2021/05/22 04:25:17;;;;;;;2.78;1.50;;;17.00;60.30;;;;;;5017422;28;20114;-62
2021/05/22 04:27:42;;;;;;;4.22;1.38;;;17.10;60.00;;;;;;5016964;28;20036;-61
2021/05/22 04:30:09;;;;;;;2.75;1.38;;;17.10;59.60;;;;;;5035018;28;20029;-63
2021/05/22 04:32:35;;;;;;;5.78;1.48;;;17.10;59.50;;;;;;5034627;28;20026;-61
2021/05/22 04:35:01;;;;;;;3.03;1.35;;;17.00;59.70;;;;;;5034333;28;20084;-61
2021/05/22 04:37:27;;;;;;;3.28;1.65;;;16.90;60.10;;;;;;5017218;28;20383;-62
2021/05/22 04:39:52;;;;;;;2.90;1.70;;;16.80;60.60;;;;;;5034011;28;20025;-62
2021/05/22 04:42:18;;;;;;;3.95;1.63;;;16.70;60.90;;;;;;5034832;28;20092;-60
2021/05/22 04:44:44;;;;;;;4.18;1.77;;;16.70;61.10;;;;;;5034374;28;20455;-62
2021/05/22 04:47:10;;;;;;;3.67;1.70;;;16.70;61.50;;;;;;5034748;28;20026;-62
2021/05/22 04:49:35;;;;;;;3.38;1.50;;;16.60;61.80;;;;;;5034680;28;20028;-62
2021/05/22 04:52:01;;;;;;;3.45;1.58;;;16.60;61.70;;;;;;5033899;28;20060;-62
2021/05/22 04:54:27;;;;;;;1.92;1.38;;;16.50;62.00;;;;;;5034374;28;20527;-62
2021/05/22 04:59:37;;;;;;;2.65;1.40;;;16.50;61.80;;;;;;5034662;28;20498;-62
2021/05/22 05:02:03;;;;;;;2.42;1.30;;;16.60;61.90;;;;;;5016087;28;20034;-62
2021/05/22 05:04:28;;;;;;;3.78;1.50;;;16.50;62.00;;;;;;5033927;28;20033;-62
2021/05/22 05:06:54;;;;;;;3.38;1.27;;;16.50;62.10;;;;;;5033830;28;20375;-62
2021/05/22 05:09:20;;;;;;;2.67;1.33;;;16.50;62.00;;;;;;5034043;28;20048;-62
2021/05/22 05:11:46;;;;;;;4.40;1.30;;;16.40;62.00;;;;;;5033662;28;20021;-61
2021/05/22 05:14:12;;;;;;;3.95;1.38;;;16.40;61.90;;;;;;5015697;28;20038;-62
2021/05/22 05:16:38;;;;;;;3.10;1.40;;;16.30;62.00;;;;;;5033974;28;20104;-60
2021/05/22 05:19:04;;;;;;;1.73;1.08;;;16.30;62.00;;;;;;5033670;28;20032;-62
2021/05/22 05:21:29;;;;;;;4.22;1.30;;;16.30;61.70;;;;;;5034180;28;20033;-62
2021/05/22 05:23:55;;;;;;;1.50;1.00;;;16.30;61.70;;;;;;5033569;28;20080;-61
2021/05/22 05:26:21;;;;;;;5.07;1.30;;;16.30;61.70;;;;;;5033871;28;20475;-62
2021/05/22 05:28:46;;;;;;;2.30;1.10;;;16.20;62.20;;;;;;5033249;28;20059;-60
2021/05/22 05:31:12;;;;;;;2.78;1.10;;;16.10;62.80;;;;;;5033823;28;20026;-62
2021/05/22 05:33:38;;;;;;;5.75;1.08;;;15.90;63.20;;;;;;5015941;28;20037;-62
2021/05/22 05:36:04;;;;;;;2.53;1.10;;;15.90;63.80;;;;;;5015260;28;20026;-62
2021/05/22 05:38:31;;;;;;;2.78;1.10;;;15.90;64.10;;;;;;5032955;28;20037;-61
2021/05/22 05:40:57;;;;;;;3.88;1.55;;;16.00;64.10;;;;;;5032973;28;20383;-61
2021/05/22 05:43:24;;;;;;;1.42;0.95;;;16.00;64.20;;;;;;5033380;28;20369;-61
2021/05/22 05:45:49;;;;;;;3.55;1.20;;;16.00;64.50;;;;;;5032529;28;20036;-60
2021/05/22 05:48:15;;;;;;;2.25;1.08;;;15.90;65.00;;;;;;5015220;28;20021;-61
2021/05/22 05:50:41;;;;;;;4.10;1.30;;;15.90;65.70;;;;;;5033309;28;20030;-61
2021/05/22 05:53:07;;;;;;;4.63;1.15;;;15.80;67.20;;;;;;5032495;28;20025;-62
2021/05/22 05:55:33;;;;;;;4.55;1.08;;;15.70;67.80;;;;;;5014797;28;20038;-61
2021/05/22 05:57:59;;;;;;;2.53;0.90;;;15.70;68.40;;;;;;5032665;28;20024;-62
2021/05/22 06:00:26;;;;;;;3.40;1.00;;;15.60;70.10;;;;;;4999000;28;20025;-61
2021/05/22 06:02:52;;;;;;;2.65;1.10;;;15.40;70.20;;;;;;5032555;28;20033;-61
2021/05/22 06:05:18;;;;;;;2.97;1.02;;;15.30;70.70;;;;;;5033168;28;20104;-61
2021/05/22 06:07:44;;;;;;;1.48;0.93;;;15.30;70.40;;;;;;5032945;28;20025;-60
2021/05/22 06:10:11;;;;;;;2.00;1.00;;;15.30;70.20;;;;;;5032818;28;20033;-62
2021/05/22 06:12:37;;;;;;;1.55;0.80;;;15.20;70.60;;;;;;5032758;28;20049;-62
2021/05/22 06:17:45;;;;;;;2.50;1.08;;;14.90;71.40;;;;;;5032565;28;20029;-62
2021/05/22 06:20:12;;;;;;;3.95;1.65;;;14.80;71.80;;;;;;5032757;28;20057;-62
2021/05/22 06:22:38;;;;;;;2.10;0.80;;;14.70;72.00;;;;;;5014879;28;20455;-62
2021/05/22 06:25:04;;;;;;;1.88;0.90;;;14.70;72.30;;;;;;5013596;28;20075;-60
2021/05/22 06:27:30;;;;;;;2.95;1.05;;;14.70;72.20;;;;;;5032413;28;20040;-62
2021/05/22 06:29:56;;;;;;;1.58;0.80;;;14.70;71.80;;;;;;5014358;28;20029;-62
2021/05/22 06:32:22;;;;;;;0.60;0.60;;;14.80;71.70;;;;;;5014969;28;20464;-62
2021/05/22 06:34:48;;;;;;;1.00;0.68;;;14.70;71.00;;;;;;5031272;28;20033;-60
2021/05/22 06:37:13;;;;;;;1.42;0.82;;;14.60;71.50;;;;;;5032494;28;20025;-62
2021/05/22 06:39:39;;;;;;;1.88;0.90;;;14.60;72.10;;;;;;5032319;28;20609;-61
2021/05/22 06:42:05;;;;;;;1.35;0.77;;;14.50;72.10;;;;;;5031644;28;20053;-61
2021/05/22 06:44:35;;;;;;;3.92;0.82;;;14.50;71.40;;;;;;5032515;28;20108;-61
2021/05/22 06:47:01;;;;;;;3.55;0.80;;;14.40;71.70;;;;;;5031988;28;20045;-62
2021/05/22 06:49:31;;;;;;;1.98;0.90;;;14.20;71.50;;;;;;5031949;28;20064;-62
2021/05/22 06:51:57;;;;;;;2.08;0.90;;;14.10;71.50;;;;;;5014051;28;20025;-61
2021/05/22 06:54:23;;;;;;;1.27;0.82;;;14.20;71.70;;;;;;5032088;28;20053;-61
2021/05/22 06:56:56;;;;;;;0.90;0.82;;;14.30;70.80;;;;;;5032266;28;20026;-62
2021/05/22 06:59:21;;;;;;;2.80;0.90;;;14.20;71.20;;;;;;5013957;28;20026;-61
2021/05/22 07:01:48;;;;;;;3.45;0.80;;;14.30;71.10;;;;;;5032038;28;20107;-61
2021/05/22 07:04:15;;;;;;;2.50;1.50;;;14.50;69.90;;;;;;5030655;28;20025;-61
2021/05/22 07:06:42;;;;;;;1.00;0.70;;;14.60;69.50;;;;;;5014168;28;20055;-63
2021/05/22 07:09:08;;;;;;;1.90;1.02;;;14.70;68.90;;;;;;5031340;28;20104;-62
2021/05/22 07:11:35;;;;;;;1.17;0.70;;;14.80;68.30;;;;;;5013800;28;20022;-60
2021/05/22 07:14:01;;;;;;;1.17;0.80;;;14.80;67.70;;;;;;5030948;28;20452;-57
2021/05/22 07:16:26;;;;;;;1.63;0.60;;;14.80;67.00;;;;;;5012938;28;20044;-58
2021/05/22 07:18:52;;;;;;;2.13;1.25;;;14.80;66.20;;;;;;5013180;28;20025;-57
2021/05/22 07:21:18;;;;;;;2.60;0.90;;;14.70;67.00;;;;;;5031525;28;20028;-58
2021/05/22 07:23:44;;;;;;;1.17;0.82;;;14.80;66.40;;;;;;5013748;28;20162;-58
2021/05/22 07:26:10;;;;;;;1.80;0.80;;;15.00;65.90;;;;;;5031314;28;20037;-57
2021/05/22 07:28:36;;;;;;;2.05;0.80;;;15.00;65.10;;;;;;5013948;28;20495;-56
2021/05/22 07:31:02;;;;;;;2.05;0.90;;;15.00;65.10;;;;;;5030731;28;20033;-59
2021/05/22 07:33:28;;;;;;;3.58;0.95;;;15.10;65.00;;;;;;5012982;28;20464;-58
2021/05/22 07:35:54;;;;;;;1.13;0.82;;;15.10;63.70;;;;;;5030318;28;20099;-58
2021/05/22 07:38:21;;;;;;;0.98;0.82;;;15.10;64.30;;;;;;5031618;28;20053;-58
2021/05/22 07:40:47;;;;;;;5.07;0.85;;;15.20;64.20;;;;;;5032613;28;20467;-58
2021/05/22 07:43:13;;;;;;;1.30;0.80;;;15.20;63.40;;;;;;5033957;28;20057;-57
2021/05/22 07:45:41;;;;;;;1.52;1.00;;;15.20;63.70;;;;;;5016955;28;20036;-57
2021/05/22 07:48:07;;;;;;;1.13;0.80;;;15.30;62.90;;;;;;5016150;28;20044;-56
2021/05/22 07:50:33;;;;;;;3.15;1.08;;;15.40;62.50;;;;;;5034924;28;20029;-58
2021/05/22 07:52:59;;;;;;;2.58;1.33;;;15.40;62.20;;;;;;5033802;28;20057;-57
2021/05/22 07:55:25;;;;;;;4.30;1.00;;;15.40;62.00;;;;;;5016068;28;20487;-59
2021/05/22 07:57:51;;;;;;;2.42;1.20;;;15.40;62.00;;;;;;5033986;28;20095;-60
2021/05/22 08:00:17;;;;;;;1.40;0.90;;;15.50;61.20;;;;;;5033781;28;20033;-57
2021/05/22 08:02:46;;;;;;;4.25;1.15;;;15.60;60.90;;;;;;5034795;28;20026;-60
2021/05/22 08:05:13;;;;;;;1.33;0.82;;;15.70;60.90;;;;;;5016775;28;20103;-59
2021/05/22 08:07:40;;;;;;;3.00;1.20;;;15.80;60.00;;;;;;5016438;28;20063;-59
2021/05/22 08:10:08;;;;;;;3.13;1.05;;;15.80;59.80;;;;;;5034133;28;20021;-59
2021/05/22 08:12:35;;;;;;;2.13;0.80;;;15.80;59.70;;;;;;5034688;28;20068;-59
2021/05/22 08:15:03;;;;;;;1.50;0.80;;;15.80;59.00;;;;;;5033110;28;20036;-58
2021/05/22 08:17:28;;;;;;;4.55;0.80;;;15.80;58.90;;;;;;5017163;28;20340;-59
2021/05/22 08:19:55;;;;;;;5.10;0.90;;;15.90;58.50;;;;;;5015630;28;20032;-58
2021/05/22 08:22:21;;;;;;;1.02;0.68;;;15.90;58.60;;;;;;5011518;28;20096;-58
2021/05/22 08:25:15;;;;;;;3.33;0.80;;;16.00;57.70;;;;;;5033636;28;20037;-58
2021/05/22 08:27:43;;;;;;;3.47;1.35;;;15.80;58.10;;;;;;5034297;28;20048;-58
2021/05/22 08:30:11;;;;;;;1.75;1.17;;;15.90;58.00;;;;;;5015483;28;20475;-58
2021/05/22 08:32:37;;;;;;;2.20;0.90;;;15.90;57.60;;;;;;5033784;28;20365;-58
2021/05/22 08:35:06;;;;;;;1.02;0.80;;;16.10;57.40;;;;;;5033610;28;20029;-57
2021/05/22 08:37:33;;;;;;;5.72;0.80;;;16.20;57.20;;;;;;5032814;28;20033;-58
2021/05/22 08:40:00;;;;;;;1.80;0.80;;;16.30;56.60;;;;;;5031943;28;20029;-60
2021/05/22 08:42:28;;;;;;;3.80;1.20;;;16.40;56.20;;;;;;4999558;28;20108;-57
2021/05/22 08:45:04;;;;;;;3.63;1.05;;;16.50;56.00;;;;;;5033873;28;20026;-56
2021/05/22 08:47:31;;;;;;;3.25;0.77;;;16.40;55.90;;;;;;5033771;28;20029;-56
2021/05/22 08:50:04;;;;;;;1.90;0.90;;;16.50;55.60;;;;;;5032025;28;20037;-58
2021/05/22 08:52:30;;;;;;;3.53;1.05;;;16.40;55.10;;;;;;5034741;28;20032;-57
2021/05/22 08:54:56;;;;;;;2.42;1.10;;;16.40;55.60;;;;;;5032896;28;20037;-58
2021/05/22 08:57:22;;;;;;;1.73;1.00;;;16.50;55.50;;;;;;5034134;28;20357;-60
2021/05/22 08:59:49;;;;;;;2.63;1.27;;;16.70;54.60;;;;;;5033235;28;20021;-56
2021/05/22 09:02:25;;;;;;;3.47;1.42;;;16.80;54.20;;;;;;5032497;28;20459;-56
2021/05/22 09:05:03;;;;;;;2.72;1.20;;;16.90;54.10;;;;;;5015661;28;20036;-56
2021/05/22 09:07:31;;;;;;;2.55;1.40;;;17.00;54.30;;;;;;5033573;28;20022;-59
2021/05/22 09:10:10;;;;;;;3.28;1.55;;;17.20;53.80;;;;;;5032385;28;20030;-58
2021/05/22 09:12:55;;;;;;;4.53;1.40;;;17.10;53.00;;;;;;5033254;28;20031;-57
2021/05/22 09:15:23;;;;;;;3.15;1.10;;;17.20;53.00;;;;;;5033172;28;20052;-58
2021/05/22 09:17:55;;;;;;;2.47;1.20;;;17.20;52.60;;;;;;5014341;28;20072;-58
2021/05/22 09:20:25;;;;;;;3.78;1.67;;;17.40;53.00;;;;;;5014944;28;20037;-59
2021/05/22 09:23:00;;;;;;;3.75;1.40;;;17.60;52.10;;;;;;5015637;28;20047;-58
2021/05/22 09:25:31;;;;;;;3.03;1.88;;;17.50;52.00;;;;;;5033622;28;20104;-59
2021/05/22 09:27:57;;;;;;;2.50;1.50;;;17.50;52.20;;;;;;5032988;28;20553;-58
2021/05/22 09:30:25;;;;;;;3.15;1.10;;;17.60;52.30;;;;;;5033231;28;20055;-57
2021/05/22 09:32:53;;;;;;;8.68;1.25;;;17.60;51.60;;;;;;5033225;28;20360;-60
2021/05/22 09:35:20;;;;;;;4.75;1.30;;;17.60;51.50;;;;;;5033250;28;20026;-58
2021/05/22 09:37:54;;;;;;;3.60;1.20;;;17.50;51.40;;;;;;5014901;28;20049;-59
2021/05/22 09:40:25;;;;;;;4.70;1.25;;;17.50;51.70;;;;;;5033169;28;20091;-58
2021/05/22 09:42:52;;;;;;;4.45;1.50;;;17.60;51.20;;;;;;5032716;28;20049;-59
2021/05/22 09:45:21;;;;;;;3.95;1.45;;;17.70;51.60;;;;;;5032192;28;20025;-58
2021/05/22 09:47:47;;;;;;;1.48;0.85;;;17.80;50.60;;;;;;5014769;28;20084;-60
2021/05/22 09:50:46;;;;;;;5.35;1.30;;;17.70;50.60;;;;;;5032261;28;20328;-59
2021/05/22 09:53:33;;;;;;;2.88;1.30;;;17.50;51.20;;;;;;5014166;28;20026;-59
2021/05/22 09:56:08;;;;;;;4.07;1.60;;;17.80;51.30;;;;;;5032059;28;20080;-58
2021/05/22 09:58:35;;;;;;;5.40;1.20;;;18.10;50.20;;;;;;5032976;28;20022;-60
2021/05/22 10:01:01;;;;;;;6.63;2.25;;;18.40;49.50;;;;;;5031803;28;20021;-58
2021/05/22 10:03:27;;;;;;;6.03;1.38;;;18.70;48.90;;;;;;5032560;28;20310;-59
2021/05/22 10:05:52;;;;;;;5.43;1.80;;;19.10;48.40;;;;;;5032833;28;20025;-58
2021/05/22 10:08:19;;;;;;;3.85;1.52;;;19.40;47.80;;;;;;5032186;28;20386;-61
2021/05/22 10:10:47;;;;;;;4.90;2.13;;;19.50;46.40;;;;;;5014917;28;20107;-56
2021/05/22 10:13:21;;;;;;;2.97;1.48;;;19.50;46.60;;;;;;5031581;28;20025;-58
2021/05/22 10:15:49;;;;;;;3.08;1.58;;;19.50;45.90;;;;;;5032130;28;20369;-56
2021/05/22 10:18:19;;;;;;;4.60;1.60;;;19.40;46.40;;;;;;5013753;28;20040;-57
2021/05/22 10:20:45;;;;;;;9.65;1.83;;;19.40;46.00;;;;;;5031564;28;20112;-58
2021/05/22 10:23:12;;;;;;;3.67;1.70;;;19.40;46.30;;;;;;5031587;28;20025;-61
2021/05/22 10:25:39;;;;;;;5.00;1.65;;;19.40;45.70;;;;;;5031903;28;20033;-58
2021/05/22 10:28:05;;;;;;;6.32;2.15;;;19.40;46.20;;;;;;5013525;28;20032;-58
2021/05/22 10:30:31;;;;;;;4.18;1.60;;;19.30;46.20;;;;;;5031770;28;20029;-57
2021/05/22 10:33:16;;;;;;;4.63;2.33;;;19.30;46.20;;;;;;5031900;28;20422;-58
2021/05/22 10:35:50;;;;;;;7.43;3.90;;;19.30;46.30;;;;;;5014057;28;20061;-59
2021/05/22 10:38:35;;;;;;;5.40;2.20;;;19.40;46.40;;;;;;5031398;28;20383;-59
2021/05/22 10:41:05;;;;;;;5.00;2.28;;;19.40;46.00;;;;;;5031049;28;20041;-60
2021/05/22 10:43:45;;;;;;;6.05;2.70;;;19.50;46.00;;;;;;5031749;28;20068;-59
2021/05/22 10:46:13;;;;;;;4.30;1.63;;;19.50;46.00;;;;;;5030829;28;20075;-58
2021/05/22 10:48:39;;;;;;;3.05;1.55;;;19.50;45.70;;;;;;5014107;28;20026;-57
2021/05/22 10:51:33;;;;;;;3.90;1.48;;;19.40;45.90;;;;;;5031238;28;20396;-58
2021/05/22 10:54:10;;;;;;;4.03;1.45;;;19.20;45.60;;;;;;5014204;28;20063;-59
2021/05/22 10:57:03;;;;;;;7.28;2.25;;;19.00;46.40;;;;;;5013557;28;20037;-60
2021/05/22 10:59:29;;;;;;;5.13;2.08;;;18.90;47.50;;;;;;5031083;28;20109;-59
2021/05/22 11:01:55;;;;;;;4.60;1.98;;;18.80;48.10;;;;;;5013588;28;20492;-60
2021/05/22 11:04:23;;;;;;;4.53;1.50;;;18.70;48.20;;;;;;5030885;28;20115;-58
2021/05/22 11:07:16;;;;;;;4.53;1.60;;;18.60;48.20;;;;;;5013102;28;20021;-59
2021/05/22 11:09:43;;;;;;;6.57;1.83;;;18.70;49.00;;;;;;5030611;28;20030;-59
2021/05/22 11:12:18;;;;;;;4.85;1.58;;;18.80;49.30;;;;;;5029868;28;20048;-59
2021/05/22 11:14:53;;;;;;;4.00;1.65;;;18.80;48.20;;;;;;5012848;28;20041;-57
2021/05/22 11:17:22;;;;;;;5.07;1.80;;;18.90;48.30;;;;;;5029790;28;20025;-59
2021/05/22 11:20:00;;;;;;;5.70;2.47;;;18.70;47.80;;;;;;5030706;28;20053;-56
2021/05/22 11:22:26;;;;;;;5.18;1.88;;;18.60;48.90;;;;;;5030487;28;20440;-60
2021/05/22 11:25:18;;;;;;;3.70;1.88;;;18.50;48.20;;;;;;5030647;28;20108;-60
2021/05/22 11:27:48;;;;;;;4.03;1.88;;;18.70;48.00;;;;;;5030654;28;20030;-59
2021/05/22 11:30:20;;;;;;;4.90;2.22;;;18.70;47.50;;;;;;5029234;28;20033;-59
2021/05/22 11:32:50;;;;;;;5.07;2.72;;;18.70;47.70;;;;;;5031176;28;20044;-60
2021/05/22 11:36:01;;;;;;;8.43;4.50;;;18.80;47.70;;;;;;5030349;28;20036;-58
2021/05/22 11:38:31;;;;;;;5.50;2.30;;;18.70;47.50;;;;;;5029913;28;20040;-58
2021/05/22 11:41:00;;;;;;;3.92;1.95;;;18.70;47.60;;;;;;5030551;28;20029;-61
2021/05/22 11:43:33;;;;;;;4.30;2.22;;;18.60;48.10;;;;;;5029312;28;20049;-59
2021/05/22 11:46:01;;;;;;;6.85;1.90;;;18.60;47.70;;;;;;5030291;28;20057;-61
2021/05/22 11:48:33;;;;;;;4.10;1.73;;;18.60;47.70;;;;;;5029978;28;20460;-61
2021/05/22 11:51:10;;;;;;;8.60;1.90;;;18.50;47.80;;;;;;5030183;28;20080;-60
2021/05/22 11:53:38;;;;;;;5.55;2.53;;;18.50;47.90;;;;;;5012528;28;20097;-61
2021/05/22 11:56:12;;;;;;;4.03;1.80;;;18.50;47.70;;;;;;5029856;28;20125;-60
2021/05/22 11:58:39;;;;;;;4.80;1.60;;;18.30;47.50;;;;;;5012094;28;20407;-58
2021/05/22 12:01:10;;;;;;;4.78;1.90;;;18.30;48.00;;;;;;5011961;28;20033;-61
2021/05/22 12:03:37;;;;;;;4.00;1.85;;;18.40;48.00;;;;;;5012160;28;20025;-60
2021/05/22 12:06:05;;;;;;;5.07;1.90;;;18.40;47.90;;;;;;5011736;28;20029;-61
2021/05/22 12:08:32;;;;;;;6.55;1.77;;;18.50;47.80;;;;;;5030191;28;20029;-60
2021/05/22 12:11:15;;;;;;;6.55;1.92;;;18.40;47.70;;;;;;5029634;28;20026;-59
2021/05/22 12:13:51;;;;;;;5.68;1.83;;;18.30;48.00;;;;;;5028916;28;20025;-58
2021/05/22 12:16:17;;;;;;;4.35;1.90;;;18.20;48.20;;;;;;5029823;28;20467;-59
2021/05/22 12:18:43;;;;;;;5.10;2.13;;;18.10;48.30;;;;;;5030586;28;20108;-59
2021/05/22 12:21:09;;;;;;;4.13;1.90;;;18.10;48.70;;;;;;5029730;28;20371;-56
2021/05/22 12:23:36;;;;;;;4.18;1.60;;;18.10;48.70;;;;;;5013078;28;20034;-61
2021/05/22 12:26:06;;;;;;;3.83;1.88;;;18.20;48.60;;;;;;5034022;28;20044;-58
2021/05/22 12:28:32;;;;;;;5.07;1.83;;;18.00;48.80;;;;;;5015518;28;20102;-59
2021/05/22 12:31:00;;;;;;;6.47;2.65;;;18.00;49.10;;;;;;5016815;28;20369;-56
2021/05/22 12:33:27;;;;;;;3.78;1.85;;;18.00;49.50;;;;;;5034037;28;20460;-60
2021/05/22 12:36:10;;;;;;;5.93;1.92;;;18.00;49.40;;;;;;5016309;28;20037;-61
2021/05/22 12:38:41;;;;;;;5.32;1.92;;;18.00;49.50;;;;;;5033536;28;20022;-61
2021/05/22 12:41:08;;;;;;;4.60;2.17;;;17.90;49.30;;;;;;5032630;28;20030;-60
2021/05/22 12:43:48;;;;;;;3.30;1.55;;;17.90;49.40;;;;;;5033642;28;20050;-59
2021/05/22 12:46:36;;;;;;;3.30;1.27;;;17.90;49.20;;;;;;5033019;28;20025;-59
2021/05/22 12:49:19;;;;;;;3.97;1.88;;;17.90;48.90;;;;;;5033545;28;20512;-60
2021/05/22 12:52:00;;;;;;;6.28;1.70;;;17.80;48.90;;;;;;5033158;28;20076;-59
2021/05/22 12:54:30;;;;;;;3.72;1.63;;;17.90;48.90;;;;;;5033312;28;20025;-59
2021/05/22 12:57:12;;;;;;;3.60;1.70;;;18.00;48.70;;;;;;5032312;28;20179;-59
2021/05/22 12:59:43;;;;;;;5.00;1.80;;;18.10;48.50;;;;;;5032545;28;20464;-58
2021/05/22 13:02:26;;;;;;;4.85;1.42;;;18.20;48.10;;;;;;5013407;28;20029;-56